sensor_id;sensor_type;location;lat;lon;timestamp;P1;durP1;ratioP1;P2;durP2;ratioP2
10529;SDS011;5313;48.834;9.228;2023-11-21T00:02:17;7.00;;;2.80;;
10529;SDS011;5313;48.834;9.228;2023-11-21T00:04:43;7.73;;;3.43;;
10529;SDS011;5313;48.834;9.228;2023-11-21T00:07:08;7.73;;;2.90;;
10529;SDS011;5313;48.834;9.228;2023-11-21T00:09:34;10.70;;;2.43;;
10529;SDS011;5313;48.834;9.228;2023-11-21T00:12:01;8.90;;;2.57;;
10529;SDS011;5313;48.834;9.228;2023-11-21T00:14:27;4.63;;;1.97;;
10529;SDS011;5313;48.834;9.228;2023-11-21T00:16:53;8.23;;;2.30;;
10529;SDS011;5313;48.834;9.228;2023-11-21T00:19:18;6.33;;;2.33;;
10529;SDS011;5313;48.834;9.228;2023-11-21T00:21:44;6.97;;;2.47;;
10529;SDS011;5313;48.834;9.228;2023-11-21T00:24:10;5.87;;;2.43;;
10529;SDS011;5313;48.834;9.228;2023-11-21T00:26:38;8.00;;;2.10;;
10529;SDS011;5313;48.834;9.228;2023-11-21T00:29:04;6.47;;;2.87;;
10529;SDS011;5313;48.834;9.228;2023-11-21T00:31:33;4.80;;;2.10;;
10529;SDS011;5313;48.834;9.228;2023-11-21T00:34:02;3.73;;;1.93;;
10529;SDS011;5313;48.834;9.228;2023-11-21T00:36:29;7.00;;;1.90;;
10529;SDS011;5313;48.834;9.228;2023-11-21T00:38:55;6.80;;;1.93;;
10529;SDS011;5313;48.834;9.228;2023-11-21T00:41:20;7.73;;;2.00;;
10529;SDS011;5313;48.834;9.228;2023-11-21T00:43:46;5.37;;;1.93;;
10529;SDS011;5313;48.834;9.228;2023-11-21T00:46:11;7.27;;;2.53;;
10529;SDS011;5313;48.834;9.228;2023-11-21T00:48:37;5.73;;;2.00;;
10529;SDS011;5313;48.834;9.228;2023-11-21T00:51:02;9.13;;;2.60;;
10529;SDS011;5313;48.834;9.228;2023-11-21T00:53:28;5.73;;;2.57;;
10529;SDS011;5313;48.834;9.228;2023-11-21T00:55:53;8.17;;;2.53;;
10529;SDS011;5313;48.834;9.228;2023-11-21T00:58:22;7.20;;;2.30;;
10529;SDS011;5313;48.834;9.228;2023-11-21T01:00:48;8.87;;;2.50;;
10529;SDS011;5313;48.834;9.228;2023-11-21T01:03:14;6.33;;;2.33;;
10529;SDS011;5313;48.834;9.228;2023-11-21T01:05:39;4.87;;;2.30;;
10529;SDS011;5313;48.834;9.228;2023-11-21T01:08:04;6.13;;;1.90;;
10529;SDS011;5313;48.834;9.228;2023-11-21T01:10:30;4.13;;;2.00;;
10529;SDS011;5313;48.834;9.228;2023-11-21T01:12:56;5.00;;;1.97;;
10529;SDS011;5313;48.834;9.228;2023-11-21T01:15:22;4.37;;;1.80;;
10529;SDS011;5313;48.834;9.228;2023-11-21T01:17:48;5.10;;;1.70;;
10529;SDS011;5313;48.834;9.228;2023-11-21T01:20:13;5.37;;;1.50;;
10529;SDS011;5313;48.834;9.228;2023-11-21T01:22:39;6.43;;;1.60;;
10529;SDS011;5313;48.834;9.228;2023-11-21T01:25:05;3.97;;;1.63;;
10529;SDS011;5313;48.834;9.228;2023-11-21T01:27:33;6.20;;;1.40;;
10529;SDS011;5313;48.834;9.228;2023-11-21T01:29:59;3.00;;;1.50;;
10529;SDS011;5313;48.834;9.228;2023-11-21T01:32:26;2.53;;;0.80;;
10529;SDS011;5313;48.834;9.228;2023-11-21T01:34:51;7.33;;;1.60;;
10529;SDS011;5313;48.834;9.228;2023-11-21T01:37:17;5.37;;;1.37;;
10529;SDS011;5313;48.834;9.228;2023-11-21T01:39:43;2.97;;;1.60;;
10529;SDS011;5313;48.834;9.228;2023-11-21T01:42:09;4.73;;;1.70;;
10529;SDS011;5313;48.834;9.228;2023-11-21T01:44:36;3.70;;;1.97;;
10529;SDS011;5313;48.834;9.228;2023-11-21T01:47:01;6.53;;;1.50;;
10529;SDS011;5313;48.834;9.228;2023-11-21T01:49:29;3.80;;;1.60;;
10529;SDS011;5313;48.834;9.228;2023-11-21T01:51:58;4.70;;;1.50;;
10529;SDS011;5313;48.834;9.228;2023-11-21T01:54:24;3.07;;;1.50;;
10529;SDS011;5313;48.834;9.228;2023-11-21T01:56:50;5.37;;;1.30;;
10529;SDS011;5313;48.834;9.228;2023-11-21T01:59:19;2.87;;;1.30;;
10529;SDS011;5313;48.834;9.228;2023-11-21T02:01:49;4.57;;;1.30;;
10529;SDS011;5313;48.834;9.228;2023-11-21T02:04:15;3.87;;;1.10;;
10529;SDS011;5313;48.834;9.228;2023-11-21T02:06:41;2.43;;;1.40;;
10529;SDS011;5313;48.834;9.228;2023-11-21T02:09:06;3.10;;;1.40;;
10529;SDS011;5313;48.834;9.228;2023-11-21T02:11:33;7.23;;;1.23;;
10529;SDS011;5313;48.834;9.228;2023-11-21T02:13:59;5.07;;;1.40;;
10529;SDS011;5313;48.834;9.228;2023-11-21T02:16:25;2.20;;;1.33;;
10529;SDS011;5313;48.834;9.228;2023-11-21T02:18:52;2.60;;;1.17;;
10529;SDS011;5313;48.834;9.228;2023-11-21T02:21:18;3.37;;;1.33;;
10529;SDS011;5313;48.834;9.228;2023-11-21T02:23:44;1.90;;;1.20;;
10529;SDS011;5313;48.834;9.228;2023-11-21T02:26:11;3.67;;;1.13;;
10529;SDS011;5313;48.834;9.228;2023-11-21T02:28:37;2.77;;;1.40;;
10529;SDS011;5313;48.834;9.228;2023-11-21T02:31:04;3.23;;;1.33;;
10529;SDS011;5313;48.834;9.228;2023-11-21T02:33:30;2.80;;;1.20;;
10529;SDS011;5313;48.834;9.228;2023-11-21T02:35:59;4.70;;;1.50;;
10529;SDS011;5313;48.834;9.228;2023-11-21T02:38:25;3.20;;;1.20;;
10529;SDS011;5313;48.834;9.228;2023-11-21T02:40:51;7.63;;;1.40;;
10529;SDS011;5313;48.834;9.228;2023-11-21T02:43:16;5.03;;;1.30;;
10529;SDS011;5313;48.834;9.228;2023-11-21T02:45:42;5.13;;;1.30;;
10529;SDS011;5313;48.834;9.228;2023-11-21T02:48:08;3.13;;;1.20;;
10529;SDS011;5313;48.834;9.228;2023-11-21T02:50:34;3.83;;;1.30;;
10529;SDS011;5313;48.834;9.228;2023-11-21T02:53:00;3.80;;;1.10;;
10529;SDS011;5313;48.834;9.228;2023-11-21T02:55:26;1.87;;;0.87;;
10529;SDS011;5313;48.834;9.228;2023-11-21T02:57:52;1.53;;;1.00;;
10529;SDS011;5313;48.834;9.228;2023-11-21T03:00:18;7.03;;;1.43;;
10529;SDS011;5313;48.834;9.228;2023-11-21T03:02:44;2.70;;;0.80;;
10529;SDS011;5313;48.834;9.228;2023-11-21T03:05:12;2.77;;;1.00;;
10529;SDS011;5313;48.834;9.228;2023-11-21T03:07:38;2.43;;;0.97;;
10529;SDS011;5313;48.834;9.228;2023-11-21T03:10:04;3.33;;;1.20;;
10529;SDS011;5313;48.834;9.228;2023-11-21T03:12:34;4.30;;;1.17;;
10529;SDS011;5313;48.834;9.228;2023-11-21T03:14:59;2.73;;;1.27;;
10529;SDS011;5313;48.834;9.228;2023-11-21T03:17:26;4.27;;;1.43;;
10529;SDS011;5313;48.834;9.228;2023-11-21T03:19:52;3.80;;;1.27;;
10529;SDS011;5313;48.834;9.228;2023-11-21T03:22:18;3.27;;;0.90;;
10529;SDS011;5313;48.834;9.228;2023-11-21T03:24:44;3.07;;;0.90;;
10529;SDS011;5313;48.834;9.228;2023-11-21T03:27:09;2.93;;;1.40;;
10529;SDS011;5313;48.834;9.228;2023-11-21T03:29:35;2.57;;;0.87;;
10529;SDS011;5313;48.834;9.228;2023-11-21T03:32:00;3.50;;;1.03;;
10529;SDS011;5313;48.834;9.228;2023-11-21T03:34:27;2.17;;;1.00;;
10529;SDS011;5313;48.834;9.228;2023-11-21T03:36:53;2.20;;;0.80;;
10529;SDS011;5313;48.834;9.228;2023-11-21T03:39:22;2.77;;;1.10;;
10529;SDS011;5313;48.834;9.228;2023-11-21T03:41:47;3.33;;;1.20;;
10529;SDS011;5313;48.834;9.228;2023-11-21T03:44:13;3.33;;;0.80;;
10529;SDS011;5313;48.834;9.228;2023-11-21T03:46:39;2.50;;;0.87;;
10529;SDS011;5313;48.834;9.228;2023-11-21T03:49:05;0.80;;;0.63;;
10529;SDS011;5313;48.834;9.228;2023-11-21T03:51:30;2.60;;;1.00;;
10529;SDS011;5313;48.834;9.228;2023-11-21T03:53:56;2.73;;;0.90;;
10529;SDS011;5313;48.834;9.228;2023-11-21T03:56:21;2.83;;;1.10;;
10529;SDS011;5313;48.834;9.228;2023-11-21T03:58:47;2.03;;;1.10;;
10529;SDS011;5313;48.834;9.228;2023-11-21T04:01:23;1.73;;;0.90;;
10529;SDS011;5313;48.834;9.228;2023-11-21T04:03:49;3.70;;;1.00;;
10529;SDS011;5313;48.834;9.228;2023-11-21T04:06:16;4.07;;;1.10;;
10529;SDS011;5313;48.834;9.228;2023-11-21T04:08:42;3.40;;;1.03;;
10529;SDS011;5313;48.834;9.228;2023-11-21T04:11:09;3.73;;;1.07;;
10529;SDS011;5313;48.834;9.228;2023-11-21T04:13:37;3.07;;;1.30;;
10529;SDS011;5313;48.834;9.228;2023-11-21T04:16:06;3.43;;;1.20;;
10529;SDS011;5313;48.834;9.228;2023-11-21T04:18:32;3.87;;;1.10;;
10529;SDS011;5313;48.834;9.228;2023-11-21T04:20:58;3.30;;;2.10;;
10529;SDS011;5313;48.834;9.228;2023-11-21T04:23:24;2.20;;;0.77;;
10529;SDS011;5313;48.834;9.228;2023-11-21T04:25:50;6.27;;;2.10;;
10529;SDS011;5313;48.834;9.228;2023-11-21T04:28:15;1.53;;;1.00;;
10529;SDS011;5313;48.834;9.228;2023-11-21T04:30:41;2.70;;;0.80;;
10529;SDS011;5313;48.834;9.228;2023-11-21T04:33:06;1.67;;;1.00;;
10529;SDS011;5313;48.834;9.228;2023-11-21T04:35:32;3.07;;;1.00;;
10529;SDS011;5313;48.834;9.228;2023-11-21T04:37:58;5.33;;;1.27;;
10529;SDS011;5313;48.834;9.228;2023-11-21T04:40:23;2.60;;;1.47;;
10529;SDS011;5313;48.834;9.228;2023-11-21T04:42:49;3.70;;;1.50;;
10529;SDS011;5313;48.834;9.228;2023-11-21T04:45:14;2.77;;;1.20;;
10529;SDS011;5313;48.834;9.228;2023-11-21T04:47:40;2.30;;;1.20;;
10529;SDS011;5313;48.834;9.228;2023-11-21T04:50:06;3.17;;;1.07;;
10529;SDS011;5313;48.834;9.228;2023-11-21T04:52:32;2.57;;;1.33;;
10529;SDS011;5313;48.834;9.228;2023-11-21T04:55:00;2.33;;;0.80;;
10529;SDS011;5313;48.834;9.228;2023-11-21T04:57:27;1.53;;;0.80;;
10529;SDS011;5313;48.834;9.228;2023-11-21T04:59:53;2.73;;;0.90;;
10529;SDS011;5313;48.834;9.228;2023-11-21T05:02:19;3.23;;;0.97;;
10529;SDS011;5313;48.834;9.228;2023-11-21T05:04:46;2.27;;;0.80;;
10529;SDS011;5313;48.834;9.228;2023-11-21T05:07:12;1.13;;;0.83;;
10529;SDS011;5313;48.834;9.228;2023-11-21T05:09:40;2.97;;;1.07;;
10529;SDS011;5313;48.834;9.228;2023-11-21T05:12:10;3.23;;;1.33;;
10529;SDS011;5313;48.834;9.228;2023-11-21T05:14:37;1.73;;;1.20;;
10529;SDS011;5313;48.834;9.228;2023-11-21T05:17:02;2.23;;;1.00;;
10529;SDS011;5313;48.834;9.228;2023-11-21T05:19:29;2.77;;;1.13;;
10529;SDS011;5313;48.834;9.228;2023-11-21T05:21:55;3.23;;;1.17;;
10529;SDS011;5313;48.834;9.228;2023-11-21T05:24:20;1.07;;;0.90;;
10529;SDS011;5313;48.834;9.228;2023-11-21T05:26:46;1.67;;;0.90;;
10529;SDS011;5313;48.834;9.228;2023-11-21T05:29:11;2.07;;;1.23;;
10529;SDS011;5313;48.834;9.228;2023-11-21T05:31:37;2.03;;;1.00;;
10529;SDS011;5313;48.834;9.228;2023-11-21T05:34:03;4.17;;;1.00;;
10529;SDS011;5313;48.834;9.228;2023-11-21T05:36:30;3.53;;;0.80;;
10529;SDS011;5313;48.834;9.228;2023-11-21T05:38:56;2.27;;;0.90;;
10529;SDS011;5313;48.834;9.228;2023-11-21T05:41:21;2.70;;;1.10;;
10529;SDS011;5313;48.834;9.228;2023-11-21T05:43:47;3.00;;;0.80;;
10529;SDS011;5313;48.834;9.228;2023-11-21T05:46:12;1.60;;;1.00;;
10529;SDS011;5313;48.834;9.228;2023-11-21T05:48:38;1.37;;;1.00;;
10529;SDS011;5313;48.834;9.228;2023-11-21T05:51:07;1.90;;;1.00;;
10529;SDS011;5313;48.834;9.228;2023-11-21T05:53:33;1.77;;;1.10;;
10529;SDS011;5313;48.834;9.228;2023-11-21T05:55:59;1.90;;;1.20;;
10529;SDS011;5313;48.834;9.228;2023-11-21T05:58:24;1.93;;;1.00;;
10529;SDS011;5313;48.834;9.228;2023-11-21T06:00:50;4.63;;;0.90;;
10529;SDS011;5313;48.834;9.228;2023-11-21T06:03:16;2.33;;;1.00;;
10529;SDS011;5313;48.834;9.228;2023-11-21T06:05:42;1.70;;;1.00;;
10529;SDS011;5313;48.834;9.228;2023-11-21T06:08:08;2.37;;;0.90;;
10529;SDS011;5313;48.834;9.228;2023-11-21T06:10:35;1.80;;;1.20;;
10529;SDS011;5313;48.834;9.228;2023-11-21T06:13:01;4.83;;;0.90;;
10529;SDS011;5313;48.834;9.228;2023-11-21T06:15:26;3.30;;;1.10;;
10529;SDS011;5313;48.834;9.228;2023-11-21T06:17:52;1.47;;;0.90;;
10529;SDS011;5313;48.834;9.228;2023-11-21T06:20:18;3.23;;;1.13;;
10529;SDS011;5313;48.834;9.228;2023-11-21T06:22:45;2.40;;;1.03;;
10529;SDS011;5313;48.834;9.228;2023-11-21T06:25:12;1.67;;;1.10;;
10529;SDS011;5313;48.834;9.228;2023-11-21T06:27:39;3.83;;;1.07;;
10529;SDS011;5313;48.834;9.228;2023-11-21T06:30:06;6.23;;;1.37;;
10529;SDS011;5313;48.834;9.228;2023-11-21T06:32:34;2.30;;;1.00;;
10529;SDS011;5313;48.834;9.228;2023-11-21T06:35:00;4.50;;;1.23;;
10529;SDS011;5313;48.834;9.228;2023-11-21T06:37:27;2.17;;;1.20;;
10529;SDS011;5313;48.834;9.228;2023-11-21T06:39:53;2.10;;;1.33;;
10529;SDS011;5313;48.834;9.228;2023-11-21T06:42:19;1.93;;;1.10;;
10529;SDS011;5313;48.834;9.228;2023-11-21T06:44:45;1.60;;;0.90;;
10529;SDS011;5313;48.834;9.228;2023-11-21T06:47:11;5.47;;;1.37;;
10529;SDS011;5313;48.834;9.228;2023-11-21T06:49:37;2.57;;;1.20;;
10529;SDS011;5313;48.834;9.228;2023-11-21T06:52:03;6.27;;;1.40;;
10529;SDS011;5313;48.834;9.228;2023-11-21T06:54:30;2.20;;;1.00;;
10529;SDS011;5313;48.834;9.228;2023-11-21T06:56:56;3.07;;;0.90;;
10529;SDS011;5313;48.834;9.228;2023-11-21T06:59:21;2.10;;;1.00;;
10529;SDS011;5313;48.834;9.228;2023-11-21T07:01:47;2.23;;;0.90;;
10529;SDS011;5313;48.834;9.228;2023-11-21T07:04:12;2.27;;;0.90;;
10529;SDS011;5313;48.834;9.228;2023-11-21T07:06:38;2.90;;;1.00;;
10529;SDS011;5313;48.834;9.228;2023-11-21T07:09:03;3.17;;;0.90;;
10529;SDS011;5313;48.834;9.228;2023-11-21T07:11:29;1.63;;;0.97;;
10529;SDS011;5313;48.834;9.228;2023-11-21T07:13:54;1.87;;;1.20;;
10529;SDS011;5313;48.834;9.228;2023-11-21T07:16:20;2.03;;;1.20;;
10529;SDS011;5313;48.834;9.228;2023-11-21T07:18:45;3.07;;;1.30;;
10529;SDS011;5313;48.834;9.228;2023-11-21T07:21:11;1.30;;;0.90;;
10529;SDS011;5313;48.834;9.228;2023-11-21T07:23:37;4.30;;;1.37;;
10529;SDS011;5313;48.834;9.228;2023-11-21T07:26:03;3.30;;;1.83;;
10529;SDS011;5313;48.834;9.228;2023-11-21T07:28:33;3.90;;;1.57;;
10529;SDS011;5313;48.834;9.228;2023-11-21T07:30:59;2.30;;;1.30;;
10529;SDS011;5313;48.834;9.228;2023-11-21T07:33:25;2.23;;;1.37;;
10529;SDS011;5313;48.834;9.228;2023-11-21T07:35:50;1.53;;;1.40;;
10529;SDS011;5313;48.834;9.228;2023-11-21T07:38:16;3.67;;;1.30;;
10529;SDS011;5313;48.834;9.228;2023-11-21T07:40:42;2.90;;;1.20;;
10529;SDS011;5313;48.834;9.228;2023-11-21T07:43:08;2.97;;;2.10;;
10529;SDS011;5313;48.834;9.228;2023-11-21T07:45:34;5.03;;;2.77;;
10529;SDS011;5313;48.834;9.228;2023-11-21T07:47:59;5.23;;;2.57;;
10529;SDS011;5313;48.834;9.228;2023-11-21T07:50:28;3.67;;;2.07;;
10529;SDS011;5313;48.834;9.228;2023-11-21T07:52:53;2.97;;;1.90;;
10529;SDS011;5313;48.834;9.228;2023-11-21T07:55:19;3.30;;;1.70;;
10529;SDS011;5313;48.834;9.228;2023-11-21T07:57:45;4.80;;;2.47;;
10529;SDS011;5313;48.834;9.228;2023-11-21T08:00:11;6.53;;;3.43;;
10529;SDS011;5313;48.834;9.228;2023-11-21T08:02:37;4.07;;;2.53;;
10529;SDS011;5313;48.834;9.228;2023-11-21T08:05:10;11.07;;;3.77;;
10529;SDS011;5313;48.834;9.228;2023-11-21T08:07:37;7.07;;;3.03;;
10529;SDS011;5313;48.834;9.228;2023-11-21T08:10:03;10.33;;;4.20;;
10529;SDS011;5313;48.834;9.228;2023-11-21T08:12:30;6.20;;;2.87;;
10529;SDS011;5313;48.834;9.228;2023-11-21T08:14:55;3.87;;;2.10;;
10529;SDS011;5313;48.834;9.228;2023-11-21T08:17:21;3.83;;;2.07;;
10529;SDS011;5313;48.834;9.228;2023-11-21T08:19:47;3.47;;;1.80;;
10529;SDS011;5313;48.834;9.228;2023-11-21T08:22:15;3.60;;;1.60;;
10529;SDS011;5313;48.834;9.228;2023-11-21T08:24:42;2.30;;;1.37;;
10529;SDS011;5313;48.834;9.228;2023-11-21T08:27:08;3.47;;;1.40;;
10529;SDS011;5313;48.834;9.228;2023-11-21T08:29:34;3.17;;;1.30;;
10529;SDS011;5313;48.834;9.228;2023-11-21T08:32:01;4.00;;;1.40;;
10529;SDS011;5313;48.834;9.228;2023-11-21T08:34:27;2.87;;;1.27;;
10529;SDS011;5313;48.834;9.228;2023-11-21T08:36:53;5.00;;;1.67;;
10529;SDS011;5313;48.834;9.228;2023-11-21T08:39:19;4.83;;;1.60;;
10529;SDS011;5313;48.834;9.228;2023-11-21T08:41:44;3.40;;;1.50;;
10529;SDS011;5313;48.834;9.228;2023-11-21T08:44:10;2.47;;;1.47;;
10529;SDS011;5313;48.834;9.228;2023-11-21T08:46:36;4.23;;;1.47;;
10529;SDS011;5313;48.834;9.228;2023-11-21T08:49:04;4.80;;;2.47;;
10529;SDS011;5313;48.834;9.228;2023-11-21T08:51:29;3.70;;;2.53;;
10529;SDS011;5313;48.834;9.228;2023-11-21T08:53:55;3.40;;;2.50;;
10529;SDS011;5313;48.834;9.228;2023-11-21T08:56:24;4.90;;;2.10;;
10529;SDS011;5313;48.834;9.228;2023-11-21T08:58:50;4.53;;;2.20;;
10529;SDS011;5313;48.834;9.228;2023-11-21T09:01:15;2.73;;;1.83;;
10529;SDS011;5313;48.834;9.228;2023-11-21T09:03:42;3.83;;;1.80;;
10529;SDS011;5313;48.834;9.228;2023-11-21T09:06:08;5.70;;;2.63;;
10529;SDS011;5313;48.834;9.228;2023-11-21T09:08:34;3.57;;;2.30;;
10529;SDS011;5313;48.834;9.228;2023-11-21T09:11:00;3.97;;;2.20;;
10529;SDS011;5313;48.834;9.228;2023-11-21T09:13:26;4.10;;;2.07;;
10529;SDS011;5313;48.834;9.228;2023-11-21T09:15:51;4.73;;;1.73;;
10529;SDS011;5313;48.834;9.228;2023-11-21T09:18:17;3.90;;;1.80;;
10529;SDS011;5313;48.834;9.228;2023-11-21T09:20:42;4.13;;;1.87;;
10529;SDS011;5313;48.834;9.228;2023-11-21T09:23:09;3.33;;;1.50;;
10529;SDS011;5313;48.834;9.228;2023-11-21T09:25:35;3.87;;;1.60;;
10529;SDS011;5313;48.834;9.228;2023-11-21T09:28:02;1.93;;;1.50;;
10529;SDS011;5313;48.834;9.228;2023-11-21T09:30:32;3.20;;;1.93;;
10529;SDS011;5313;48.834;9.228;2023-11-21T09:32:58;2.77;;;1.80;;
10529;SDS011;5313;48.834;9.228;2023-11-21T09:35:25;5.23;;;1.90;;
10529;SDS011;5313;48.834;9.228;2023-11-21T09:37:52;2.60;;;1.70;;
10529;SDS011;5313;48.834;9.228;2023-11-21T09:40:20;3.80;;;2.10;;
10529;SDS011;5313;48.834;9.228;2023-11-21T09:45:20;3.80;;;2.07;;
10529;SDS011;5313;48.834;9.228;2023-11-21T09:47:53;2.80;;;2.10;;
10529;SDS011;5313;48.834;9.228;2023-11-21T09:50:24;3.10;;;1.87;;
10529;SDS011;5313;48.834;9.228;2023-11-21T09:52:54;3.03;;;2.20;;
10529;SDS011;5313;48.834;9.228;2023-11-21T09:55:35;2.40;;;1.70;;
10529;SDS011;5313;48.834;9.228;2023-11-21T09:58:02;2.50;;;1.87;;
10529;SDS011;5313;48.834;9.228;2023-11-21T10:00:30;3.63;;;2.10;;
10529;SDS011;5313;48.834;9.228;2023-11-21T10:02:58;3.13;;;2.17;;
10529;SDS011;5313;48.834;9.228;2023-11-21T10:05:24;2.33;;;2.10;;
10529;SDS011;5313;48.834;9.228;2023-11-21T10:07:50;1.83;;;1.73;;
10529;SDS011;5313;48.834;9.228;2023-11-21T10:10:17;3.93;;;1.67;;
10529;SDS011;5313;48.834;9.228;2023-11-21T10:12:45;2.53;;;1.57;;
10529;SDS011;5313;48.834;9.228;2023-11-21T10:15:18;2.20;;;1.40;;
10529;SDS011;5313;48.834;9.228;2023-11-21T10:17:46;3.00;;;1.60;;
10529;SDS011;5313;48.834;9.228;2023-11-21T10:20:14;1.97;;;1.50;;
10529;SDS011;5313;48.834;9.228;2023-11-21T10:22:41;3.17;;;1.70;;
10529;SDS011;5313;48.834;9.228;2023-11-21T10:25:08;2.50;;;1.70;;
10529;SDS011;5313;48.834;9.228;2023-11-21T10:27:34;3.77;;;1.80;;
10529;SDS011;5313;48.834;9.228;2023-11-21T10:30:03;1.77;;;1.67;;
10529;SDS011;5313;48.834;9.228;2023-11-21T10:32:30;3.00;;;1.50;;
10529;SDS011;5313;48.834;9.228;2023-11-21T10:34:57;2.17;;;1.60;;
10529;SDS011;5313;48.834;9.228;2023-11-21T10:37:25;2.77;;;2.00;;
10529;SDS011;5313;48.834;9.228;2023-11-21T10:39:56;4.93;;;1.93;;
10529;SDS011;5313;48.834;9.228;2023-11-21T10:42:23;3.50;;;1.73;;
10529;SDS011;5313;48.834;9.228;2023-11-21T10:44:49;2.60;;;1.87;;
10529;SDS011;5313;48.834;9.228;2023-11-21T10:47:15;3.13;;;1.57;;
10529;SDS011;5313;48.834;9.228;2023-11-21T10:49:44;1.67;;;1.50;;
10529;SDS011;5313;48.834;9.228;2023-11-21T10:52:12;2.43;;;1.90;;
10529;SDS011;5313;48.834;9.228;2023-11-21T10:54:42;3.47;;;2.00;;
10529;SDS011;5313;48.834;9.228;2023-11-21T10:57:08;2.40;;;1.90;;
10529;SDS011;5313;48.834;9.228;2023-11-21T10:59:35;1.63;;;1.37;;
10529;SDS011;5313;48.834;9.228;2023-11-21T11:02:01;1.40;;;1.30;;
10529;SDS011;5313;48.834;9.228;2023-11-21T11:04:30;2.10;;;1.30;;
10529;SDS011;5313;48.834;9.228;2023-11-21T11:06:57;2.10;;;1.50;;
10529;SDS011;5313;48.834;9.228;2023-11-21T11:09:28;1.90;;;1.30;;
10529;SDS011;5313;48.834;9.228;2023-11-21T11:11:57;2.43;;;1.40;;
10529;SDS011;5313;48.834;9.228;2023-11-21T11:14:23;3.13;;;1.10;;
10529;SDS011;5313;48.834;9.228;2023-11-21T11:16:53;2.50;;;1.37;;
10529;SDS011;5313;48.834;9.228;2023-11-21T11:19:20;1.20;;;1.10;;
10529;SDS011;5313;48.834;9.228;2023-11-21T11:30:00;1.40;;;1.10;;
10529;SDS011;5313;48.834;9.228;2023-11-21T11:32:43;2.30;;;1.10;;
10529;SDS011;5313;48.834;9.228;2023-11-21T11:35:25;1.00;;;0.90;;
10529;SDS011;5313;48.834;9.228;2023-11-21T11:38:12;1.00;;;0.90;;
10529;SDS011;5313;48.834;9.228;2023-11-21T11:40:45;3.03;;;1.20;;
10529;SDS011;5313;48.834;9.228;2023-11-21T11:43:11;1.30;;;1.00;;
10529;SDS011;5313;48.834;9.228;2023-11-21T11:45:37;1.60;;;1.37;;
10529;SDS011;5313;48.834;9.228;2023-11-21T11:48:06;1.97;;;1.17;;
10529;SDS011;5313;48.834;9.228;2023-11-21T11:50:33;3.37;;;1.20;;
10529;SDS011;5313;48.834;9.228;2023-11-21T11:53:12;1.60;;;1.30;;
10529;SDS011;5313;48.834;9.228;2023-11-21T11:55:38;3.73;;;1.40;;
10529;SDS011;5313;48.834;9.228;2023-11-21T11:58:05;2.20;;;1.83;;
10529;SDS011;5313;48.834;9.228;2023-11-21T12:02:58;3.70;;;2.40;;
10529;SDS011;5313;48.834;9.228;2023-11-21T12:05:28;3.00;;;2.43;;
10529;SDS011;5313;48.834;9.228;2023-11-21T12:08:01;2.70;;;2.40;;
10529;SDS011;5313;48.834;9.228;2023-11-21T12:10:29;2.13;;;1.80;;
10529;SDS011;5313;48.834;9.228;2023-11-21T12:12:59;3.00;;;1.70;;
10529;SDS011;5313;48.834;9.228;2023-11-21T12:15:26;1.90;;;1.60;;
10529;SDS011;5313;48.834;9.228;2023-11-21T12:17:55;2.00;;;1.80;;
10529;SDS011;5313;48.834;9.228;2023-11-21T12:20:24;1.77;;;1.67;;
10529;SDS011;5313;48.834;9.228;2023-11-21T12:22:50;1.40;;;1.30;;
10529;SDS011;5313;48.834;9.228;2023-11-21T12:25:20;3.27;;;1.70;;
10529;SDS011;5313;48.834;9.228;2023-11-21T12:27:48;1.90;;;1.50;;
10529;SDS011;5313;48.834;9.228;2023-11-21T12:30:15;2.70;;;1.77;;
10529;SDS011;5313;48.834;9.228;2023-11-21T12:32:43;2.80;;;1.83;;
10529;SDS011;5313;48.834;9.228;2023-11-21T12:35:11;2.03;;;1.83;;
10529;SDS011;5313;48.834;9.228;2023-11-21T12:37:38;2.23;;;2.03;;
10529;SDS011;5313;48.834;9.228;2023-11-21T12:40:07;2.37;;;2.17;;
10529;SDS011;5313;48.834;9.228;2023-11-21T12:42:36;2.63;;;2.17;;
10529;SDS011;5313;48.834;9.228;2023-11-21T12:47:45;2.47;;;2.27;;
10529;SDS011;5313;48.834;9.228;2023-11-21T12:50:20;2.97;;;2.07;;
10529;SDS011;5313;48.834;9.228;2023-11-21T12:52:53;3.60;;;2.20;;
10529;SDS011;5313;48.834;9.228;2023-11-21T12:55:20;2.40;;;1.97;;
10529;SDS011;5313;48.834;9.228;2023-11-21T12:57:49;1.90;;;1.70;;
10529;SDS011;5313;48.834;9.228;2023-11-21T13:00:20;2.47;;;1.90;;
10529;SDS011;5313;48.834;9.228;2023-11-21T13:02:53;2.37;;;2.00;;
10529;SDS011;5313;48.834;9.228;2023-11-21T13:05:32;2.07;;;1.87;;
10529;SDS011;5313;48.834;9.228;2023-11-21T13:08:01;3.37;;;2.13;;
10529;SDS011;5313;48.834;9.228;2023-11-21T13:10:29;2.83;;;2.50;;
10529;SDS011;5313;48.834;9.228;2023-11-21T13:12:58;3.20;;;2.80;;
10529;SDS011;5313;48.834;9.228;2023-11-21T13:15:27;3.00;;;2.70;;
10529;SDS011;5313;48.834;9.228;2023-11-21T13:17:53;5.20;;;3.20;;
10529;SDS011;5313;48.834;9.228;2023-11-21T13:20:19;2.60;;;2.40;;
10529;SDS011;5313;48.834;9.228;2023-11-21T13:22:49;4.07;;;2.33;;
10529;SDS011;5313;48.834;9.228;2023-11-21T13:25:19;4.67;;;2.40;;
10529;SDS011;5313;48.834;9.228;2023-11-21T13:27:56;3.67;;;2.30;;
10529;SDS011;5313;48.834;9.228;2023-11-21T13:30:24;3.97;;;2.77;;
10529;SDS011;5313;48.834;9.228;2023-11-21T13:32:58;5.40;;;2.90;;
10529;SDS011;5313;48.834;9.228;2023-11-21T13:35:27;3.10;;;2.60;;
10529;SDS011;5313;48.834;9.228;2023-11-21T13:37:57;3.17;;;2.87;;
10529;SDS011;5313;48.834;9.228;2023-11-21T13:40:31;4.00;;;2.53;;
10529;SDS011;5313;48.834;9.228;2023-11-21T13:43:00;3.60;;;3.03;;
10529;SDS011;5313;48.834;9.228;2023-11-21T13:45:29;4.40;;;3.27;;
10529;SDS011;5313;48.834;9.228;2023-11-21T13:47:55;5.40;;;2.90;;
10529;SDS011;5313;48.834;9.228;2023-11-21T13:50:25;5.03;;;3.63;;
10529;SDS011;5313;48.834;9.228;2023-11-21T13:52:57;3.30;;;2.97;;
10529;SDS011;5313;48.834;9.228;2023-11-21T13:55:28;3.70;;;3.20;;
10529;SDS011;5313;48.834;9.228;2023-11-21T13:57:53;3.67;;;3.23;;
10529;SDS011;5313;48.834;9.228;2023-11-21T14:00:19;5.33;;;3.10;;
10529;SDS011;5313;48.834;9.228;2023-11-21T14:03:03;3.53;;;3.10;;
10529;SDS011;5313;48.834;9.228;2023-11-21T14:05:33;4.53;;;2.47;;
10529;SDS011;5313;48.834;9.228;2023-11-21T14:07:59;7.77;;;2.97;;
10529;SDS011;5313;48.834;9.228;2023-11-21T14:10:30;4.43;;;3.20;;
10529;SDS011;5313;48.834;9.228;2023-11-21T14:13:15;3.90;;;3.10;;
10529;SDS011;5313;48.834;9.228;2023-11-21T14:15:42;4.13;;;3.03;;
10529;SDS011;5313;48.834;9.228;2023-11-21T14:18:11;3.63;;;2.40;;
10529;SDS011;5313;48.834;9.228;2023-11-21T14:20:42;2.57;;;2.07;;
10529;SDS011;5313;48.834;9.228;2023-11-21T14:23:09;3.53;;;2.10;;
10529;SDS011;5313;48.834;9.228;2023-11-21T14:25:35;5.07;;;1.87;;
10529;SDS011;5313;48.834;9.228;2023-11-21T14:28:02;1.73;;;1.60;;
10529;SDS011;5313;48.834;9.228;2023-11-21T14:30:29;1.63;;;1.50;;
10529;SDS011;5313;48.834;9.228;2023-11-21T14:32:58;2.27;;;1.57;;
10529;SDS011;5313;48.834;9.228;2023-11-21T14:35:24;2.17;;;1.50;;
10529;SDS011;5313;48.834;9.228;2023-11-21T14:37:49;2.53;;;1.60;;
10529;SDS011;5313;48.834;9.228;2023-11-21T14:40:15;1.67;;;1.57;;
10529;SDS011;5313;48.834;9.228;2023-11-21T14:42:41;1.77;;;1.50;;
10529;SDS011;5313;48.834;9.228;2023-11-21T14:45:08;1.60;;;1.50;;
10529;SDS011;5313;48.834;9.228;2023-11-21T14:47:37;1.80;;;1.60;;
10529;SDS011;5313;48.834;9.228;2023-11-21T14:50:07;3.37;;;1.50;;
10529;SDS011;5313;48.834;9.228;2023-11-21T14:52:52;1.93;;;1.43;;
10529;SDS011;5313;48.834;9.228;2023-11-21T14:55:24;1.73;;;1.50;;
10529;SDS011;5313;48.834;9.228;2023-11-21T14:58:13;3.07;;;2.07;;
10529;SDS011;5313;48.834;9.228;2023-11-21T15:00:43;2.03;;;1.70;;
10529;SDS011;5313;48.834;9.228;2023-11-21T15:03:09;12.93;;;1.83;;
10529;SDS011;5313;48.834;9.228;2023-11-21T15:05:46;3.90;;;2.00;;
10529;SDS011;5313;48.834;9.228;2023-11-21T15:08:13;1.60;;;1.50;;
10529;SDS011;5313;48.834;9.228;2023-11-21T15:10:48;4.27;;;2.03;;
10529;SDS011;5313;48.834;9.228;2023-11-21T15:13:18;2.00;;;1.80;;
10529;SDS011;5313;48.834;9.228;2023-11-21T15:15:45;2.47;;;1.77;;
10529;SDS011;5313;48.834;9.228;2023-11-21T15:18:11;3.10;;;2.13;;